createdAt,value
2023-04-05T00:00:24.514Z,50.46
2023-04-05T00:04:28.949Z,50.40
2023-04-05T00:08:33.538Z,50.34
2023-04-05T00:12:36.587Z,50.38
2023-04-05T00:16:39.790Z,50.54
2023-04-05T00:20:43.119Z,50.54
2023-04-05T00:24:47.720Z,50.47
2023-04-05T00:28:51.042Z,50.21
2023-04-05T00:32:54.292Z,50.62
2023-04-05T00:36:57.410Z,50.59
2023-04-05T00:41:01.920Z,50.66
2023-04-05T00:45:05.614Z,50.50
2023-04-05T00:49:08.863Z,50.57
2023-04-05T00:53:12.008Z,50.53
2023-04-05T00:57:17.316Z,50.90
2023-04-05T01:01:23.095Z,50.93
2023-04-05T01:05:36.105Z,50.76
2023-04-05T01:09:49.413Z,50.99
2023-04-05T01:13:59.463Z,51.08
2023-04-05T01:18:03.012Z,51.09
2023-04-05T01:22:47.895Z,51.11
2023-04-05T01:27:11.504Z,51.14
2023-04-05T01:31:24.181Z,51.10
2023-04-05T01:35:34.931Z,51.18
2023-04-05T01:39:39.999Z,51.35
2023-04-05T01:43:43.718Z,51.31
2023-04-05T01:47:48.270Z,51.50
2023-04-05T01:51:55.187Z,51.55
2023-04-05T01:56:01.519Z,51.81
2023-04-05T02:00:06.223Z,51.66
2023-04-05T02:04:17.249Z,51.71
2023-04-05T02:08:20.347Z,51.91
2023-04-05T02:12:25.026Z,51.90
2023-04-05T02:16:28.222Z,51.95
2023-04-05T02:20:33.133Z,51.96
2023-04-05T02:24:36.219Z,51.99
2023-04-05T02:28:39.299Z,51.86
2023-04-05T02:32:43.035Z,52.07
2023-04-05T02:36:47.592Z,52.34
2023-04-05T02:40:51.468Z,52.16
2023-04-05T02:44:54.863Z,52.38
2023-04-05T02:48:58.884Z,52.27
2023-04-05T02:53:06.259Z,52.42
2023-04-05T02:57:10.650Z,52.46
2023-04-05T03:01:24.591Z,52.64
2023-04-05T03:05:27.800Z,52.56
2023-04-05T03:09:33.807Z,52.63
2023-04-05T03:13:42.100Z,52.62
2023-04-05T03:17:52.873Z,52.87
2023-04-05T03:21:58.097Z,53.25
2023-04-05T03:26:10.407Z,53.19
2023-04-05T03:30:17.024Z,52.96
2023-04-05T03:34:29.073Z,53.09
2023-04-05T03:38:38.673Z,53.04
2023-04-05T03:42:57.575Z,53.07
2023-04-05T03:47:01.269Z,53.19
2023-04-05T03:51:08.043Z,53.34
2023-04-05T03:55:11.323Z,53.42
2023-04-05T03:59:16.247Z,53.41
2023-04-05T04:03:19.672Z,53.53
2023-04-05T04:07:26.762Z,53.38
2023-04-05T04:11:29.876Z,53.36
2023-04-05T04:15:34.254Z,53.44
2023-04-05T04:19:52.640Z,53.56
2023-04-05T04:24:18.870Z,53.42
2023-04-05T04:28:43.891Z,53.48
2023-04-05T04:33:20.190Z,53.42
2023-04-05T04:37:46.719Z,53.51
2023-04-05T04:42:13.479Z,53.59
2023-04-05T04:46:44.186Z,53.48
2023-04-05T04:51:26.178Z,53.65
2023-04-05T04:55:29.666Z,53.84
2023-04-05T04:59:33.463Z,53.44
2023-04-05T05:03:40.393Z,53.60
2023-04-05T05:07:44.849Z,53.86
2023-04-05T05:11:47.907Z,53.79
2023-04-05T05:15:51.847Z,53.92
2023-04-05T05:19:56.345Z,53.71
2023-04-05T05:24:00.791Z,53.82
2023-04-05T05:28:04.005Z,53.86
2023-04-05T05:32:07.617Z,54.00
2023-04-05T05:36:13.416Z,53.98
2023-04-05T05:40:17.938Z,54.17
2023-04-05T05:44:21.044Z,54.34
2023-04-05T05:48:24.132Z,55.69
2023-04-05T05:52:27.298Z,54.87
2023-04-05T05:56:31.829Z,54.47
2023-04-05T06:00:34.924Z,54.47
2023-04-05T06:04:39.002Z,54.42
2023-04-05T06:08:42.118Z,54.35
2023-04-05T06:12:46.532Z,54.07
2023-04-05T06:16:49.592Z,53.96
2023-04-05T06:20:52.601Z,53.40
2023-04-05T06:24:55.922Z,53.28
2023-04-05T06:29:00.381Z,53.08
2023-04-05T06:33:03.522Z,53.01
2023-04-05T06:37:06.928Z,52.55
2023-04-05T06:41:10.093Z,52.61
2023-04-05T06:45:14.636Z,52.79
2023-04-05T06:49:17.697Z,52.28
2023-04-05T06:53:20.707Z,52.32
2023-04-05T06:57:23.954Z,52.50
2023-04-05T07:01:28.457Z,51.98
2023-04-05T07:05:31.894Z,51.96
2023-04-05T07:09:35.278Z,51.88
2023-04-05T07:13:38.681Z,51.81
2023-04-05T07:17:43.044Z,51.75
2023-04-05T07:21:46.150Z,51.10
2023-04-05T07:25:49.119Z,51.10
2023-04-05T07:29:52.231Z,50.92
2023-04-05T07:33:58.188Z,51.35
2023-04-05T07:38:01.465Z,50.72
2023-04-05T07:42:04.627Z,50.28
2023-04-05T07:46:07.767Z,50.05
2023-04-05T07:50:15.380Z,48.89
2023-04-05T07:54:18.629Z,48.61
2023-04-05T07:58:22.626Z,48.19
2023-04-05T08:02:25.748Z,48.24
2023-04-05T08:06:31.214Z,48.11
2023-04-05T08:10:34.367Z,48.33
2023-04-05T08:14:37.323Z,47.16
2023-04-05T08:18:40.382Z,47.65
2023-04-05T08:22:44.763Z,47.71
2023-04-05T08:26:48.817Z,49.00
2023-04-05T08:30:55.301Z,48.50
2023-04-05T08:34:58.464Z,48.26
2023-04-05T08:39:03.032Z,47.68
2023-04-05T08:43:12.176Z,47.54
2023-04-05T08:47:20.724Z,47.35
2023-04-05T08:51:24.918Z,47.70
2023-04-05T08:55:29.506Z,47.73
2023-04-05T08:59:35.516Z,47.28
2023-04-05T09:03:41.953Z,47.49
2023-04-05T09:07:48.006Z,47.49
2023-04-05T09:11:52.671Z,46.20
2023-04-05T09:15:56.852Z,47.61
2023-04-05T09:19:59.863Z,46.77
2023-04-05T09:24:02.973Z,46.43
2023-04-05T09:28:08.094Z,46.80
2023-04-05T09:32:13.685Z,46.40
2023-04-05T09:36:20.171Z,46.77
2023-04-05T09:40:24.534Z,45.44
2023-04-05T09:44:49.193Z,46.08
2023-04-05T09:48:52.451Z,45.76
2023-04-05T09:53:07.429Z,44.73
2023-04-05T09:57:12.137Z,43.94
2023-04-05T10:01:17.530Z,43.29
2023-04-05T10:05:24.523Z,41.92
2023-04-05T10:09:29.025Z,41.53
2023-04-05T10:13:32.711Z,42.22
2023-04-05T10:17:46.015Z,42.67
2023-04-05T10:21:50.308Z,42.19
2023-04-05T10:26:05.488Z,40.13
2023-04-05T10:30:09.950Z,41.01
2023-04-05T10:34:22.192Z,41.60
2023-04-05T10:38:27.693Z,41.62
2023-04-05T10:42:43.829Z,40.23
2023-04-05T10:46:47.647Z,39.62
2023-04-05T10:50:53.079Z,40.19
2023-04-05T10:54:59.164Z,40.28
2023-04-05T10:59:03.361Z,40.41
2023-04-05T11:03:06.746Z,39.70
2023-04-05T11:07:16.002Z,39.14
2023-04-05T11:11:23.169Z,38.86
2023-04-05T11:15:34.337Z,40.18
2023-04-05T11:19:52.294Z,39.93
2023-04-05T11:24:07.798Z,40.02
2023-04-05T11:28:23.342Z,39.66
2023-04-05T11:32:40.276Z,38.57
2023-04-05T11:36:46.120Z,38.83
2023-04-05T11:40:51.901Z,39.85
2023-04-05T11:44:55.202Z,39.24
2023-04-05T11:48:58.396Z,39.16
2023-04-05T11:53:12.102Z,39.42
2023-04-05T11:57:21.395Z,39.60
2023-04-05T12:01:24.508Z,39.10
2023-04-05T12:05:27.515Z,38.40
2023-04-05T12:09:30.632Z,38.85
2023-04-05T12:13:36.272Z,38.30
2023-04-05T12:17:44.312Z,38.95
2023-04-05T12:21:47.539Z,38.96
2023-04-05T12:25:50.721Z,38.82
2023-04-05T12:30:08.822Z,37.10
2023-04-05T12:34:13.858Z,37.35
2023-04-05T12:38:17.619Z,37.09
2023-04-05T12:42:21.191Z,36.88
2023-04-05T12:46:40.642Z,37.61
2023-04-05T12:50:45.456Z,37.87
2023-04-05T12:54:55.294Z,37.58
2023-04-05T12:58:58.433Z,37.43
2023-04-05T13:03:03.059Z,37.24
2023-04-05T13:07:06.200Z,37.05
2023-04-05T13:11:10.487Z,37.45
2023-04-05T13:15:14.383Z,36.83
2023-04-05T13:19:18.893Z,37.08
2023-04-05T13:23:22.052Z,37.58
2023-04-05T13:27:25.038Z,36.70
2023-04-05T13:31:28.615Z,36.52
2023-04-05T13:35:33.736Z,36.35
2023-04-05T13:39:36.888Z,36.81
2023-04-05T13:43:39.889Z,36.50
2023-04-05T13:47:43.340Z,37.02
2023-04-05T13:51:47.752Z,36.89
2023-04-05T13:55:51.113Z,37.16
2023-04-05T13:59:54.185Z,37.16
2023-04-05T14:03:57.548Z,36.89
2023-04-05T14:08:02.086Z,36.63
2023-04-05T14:12:06.362Z,36.69
2023-04-05T14:16:09.905Z,36.17
2023-04-05T14:20:13.450Z,36.59
2023-04-05T14:24:17.992Z,36.77
2023-04-05T14:28:21.225Z,36.36
2023-04-05T14:32:25.381Z,36.58
2023-04-05T14:36:28.817Z,35.84
2023-04-05T14:40:33.393Z,35.93
2023-04-05T14:44:36.653Z,36.25
2023-04-05T14:48:40.006Z,36.20
2023-04-05T14:52:43.191Z,37.82
2023-04-05T14:56:48.386Z,37.11
2023-04-05T15:00:52.218Z,37.05
2023-04-05T15:04:55.609Z,37.44
2023-04-05T15:08:59.587Z,36.58
2023-04-05T15:13:04.142Z,36.60
2023-04-05T15:17:11.135Z,37.04
2023-04-05T15:21:14.340Z,37.45
2023-04-05T15:25:17.725Z,37.37
2023-04-05T15:29:22.447Z,37.18
2023-04-05T15:33:25.814Z,36.91
2023-04-05T15:37:29.250Z,36.47
2023-04-05T15:41:34.462Z,36.25
2023-04-05T15:45:39.019Z,36.93
2023-04-05T15:49:43.475Z,37.33
2023-04-05T15:53:46.640Z,36.90
2023-04-05T15:57:54.568Z,37.36
2023-04-05T16:01:59.208Z,37.51
2023-04-05T16:06:02.664Z,37.49
2023-04-05T16:10:07.049Z,38.21
2023-04-05T16:14:11.524Z,38.02
2023-04-05T16:18:19.480Z,38.50
2023-04-05T16:22:22.995Z,38.63
2023-04-05T16:26:26.409Z,38.01
2023-04-05T16:30:29.669Z,38.12
2023-04-05T16:34:34.264Z,38.58
2023-04-05T16:38:37.575Z,39.04
2023-04-05T16:42:40.748Z,39.39
2023-04-05T16:46:46.128Z,39.19
2023-04-05T16:50:50.701Z,38.75
2023-04-05T16:54:53.893Z,39.28
2023-04-05T16:58:57.661Z,39.66
2023-04-05T17:03:01.325Z,39.73
2023-04-05T17:07:05.891Z,39.97
2023-04-05T17:11:09.234Z,40.75
2023-04-05T17:15:12.875Z,40.63
2023-04-05T17:19:16.120Z,41.02
2023-04-05T17:23:20.616Z,40.88
2023-04-05T17:27:25.907Z,40.64
2023-04-05T17:31:29.411Z,40.91
2023-04-05T17:35:32.983Z,41.02
2023-04-05T17:39:37.982Z,41.26
2023-04-05T17:43:41.286Z,41.73
2023-04-05T17:47:44.733Z,41.08
2023-04-05T17:51:56.523Z,40.75
2023-04-05T17:56:01.514Z,41.08
2023-04-05T18:00:05.292Z,41.65
2023-04-05T18:04:11.040Z,41.76
2023-04-05T18:08:16.470Z,41.60
2023-04-05T18:12:22.019Z,41.51
2023-04-05T18:16:25.412Z,41.52
2023-04-05T18:20:28.670Z,41.53
2023-04-05T18:24:31.973Z,41.46
2023-04-05T18:28:36.507Z,41.57
2023-04-05T18:32:40.759Z,41.72
2023-04-05T18:36:43.973Z,41.87
2023-04-05T18:40:48.814Z,42.29
2023-04-05T18:44:53.362Z,42.65
2023-04-05T18:48:57.824Z,42.67
2023-04-05T18:53:01.067Z,42.79
2023-04-05T18:57:04.327Z,42.85
2023-04-05T19:01:12.938Z,43.01
2023-04-05T19:05:16.362Z,43.22
2023-04-05T19:09:20.228Z,43.25
2023-04-05T19:13:23.533Z,43.24
2023-04-05T19:17:28.250Z,43.12
2023-04-05T19:21:31.442Z,43.35
2023-04-05T19:25:34.612Z,43.31
2023-04-05T19:29:37.899Z,43.44
2023-04-05T19:33:42.383Z,43.85
2023-04-05T19:37:45.593Z,43.81
2023-04-05T19:41:48.922Z,43.64
2023-04-05T19:45:58.137Z,43.44
2023-04-05T19:50:04.798Z,44.01
2023-04-05T19:54:11.986Z,44.15
2023-04-05T19:58:28.182Z,44.19
2023-04-05T20:02:37.607Z,44.21
2023-04-05T20:06:43.354Z,44.56
2023-04-05T20:10:49.247Z,45.02
2023-04-05T20:14:53.033Z,45.14
2023-04-05T20:18:59.371Z,45.45
2023-04-05T20:23:05.675Z,45.81
2023-04-05T20:27:08.888Z,46.05
2023-04-05T20:31:21.938Z,46.19
2023-04-05T20:35:33.246Z,46.09
2023-04-05T20:39:37.875Z,46.20
2023-04-05T20:43:42.198Z,46.02
2023-04-05T20:59:26.336Z,46.33
2023-04-05T21:03:30.234Z,46.45
2023-04-05T21:07:34.462Z,46.44
2023-04-05T21:11:37.768Z,46.58
2023-04-05T21:15:42.590Z,46.81
2023-04-05T21:19:46.088Z,46.91
2023-04-05T21:23:50.092Z,46.93
2023-04-05T21:27:53.372Z,47.28
2023-04-05T21:31:58.020Z,47.35
2023-04-05T21:36:03.171Z,47.50
2023-04-05T21:40:07.567Z,47.43
2023-04-05T21:44:11.107Z,47.48
2023-04-05T21:48:15.794Z,47.35
2023-04-05T21:52:19.388Z,47.28
2023-04-05T21:56:22.601Z,47.34
2023-04-05T22:00:26.088Z,47.31
2023-04-05T22:04:31.119Z,47.29
2023-04-05T22:08:35.142Z,47.18
2023-04-05T22:12:38.489Z,47.39
2023-04-05T22:16:41.806Z,47.71
2023-04-05T22:20:46.715Z,47.84
2023-04-05T22:24:50.048Z,47.91
2023-04-05T22:28:53.331Z,47.82
2023-04-05T22:32:56.764Z,47.78
2023-04-05T22:37:01.608Z,47.75
2023-04-05T22:41:04.979Z,47.78
2023-04-05T22:45:09.785Z,47.84
2023-04-05T22:49:13.172Z,48.15
2023-04-05T22:53:17.864Z,47.99
2023-04-05T22:57:21.075Z,47.88
2023-04-05T23:01:24.272Z,48.15
2023-04-05T23:05:27.601Z,48.16
2023-04-05T23:09:32.192Z,48.56
2023-04-05T23:13:35.457Z,48.66
2023-04-05T23:17:38.734Z,48.62
2023-04-05T23:21:42.072Z,48.85
2023-04-05T23:25:46.732Z,48.79
2023-04-05T23:29:49.954Z,48.82
2023-04-05T23:33:53.153Z,49.07
2023-04-05T23:37:56.317Z,49.13
2023-04-05T23:42:01.312Z,49.18
2023-04-05T23:46:04.769Z,49.18
2023-04-05T23:50:09.629Z,49.39
2023-04-05T23:54:12.787Z,49.42
2023-04-05T23:58:17.355Z,49.38
